sensor_id;sensor_type;location;lat;lon;timestamp;P1;durP1;ratioP1;P2;durP2;ratioP2
5904;SDS011;2978;42.012;24.880;2023-03-23T00:01:52;18.90;;;15.07;;
5904;SDS011;2978;42.012;24.880;2023-03-23T00:04:18;26.07;;;14.73;;
5904;SDS011;2978;42.012;24.880;2023-03-23T00:06:44;23.20;;;14.50;;
5904;SDS011;2978;42.012;24.880;2023-03-23T00:09:11;19.00;;;14.77;;
5904;SDS011;2978;42.012;24.880;2023-03-23T00:11:37;20.40;;;14.80;;
5904;SDS011;2978;42.012;24.880;2023-03-23T00:14:04;24.33;;;17.20;;
5904;SDS011;2978;42.012;24.880;2023-03-23T00:16:31;21.63;;;15.90;;
5904;SDS011;2978;42.012;24.880;2023-03-23T00:18:59;24.23;;;16.60;;
5904;SDS011;2978;42.012;24.880;2023-03-23T00:21:30;21.37;;;15.97;;
5904;SDS011;2978;42.012;24.880;2023-03-23T00:24:01;19.33;;;14.97;;
5904;SDS011;2978;42.012;24.880;2023-03-23T00:26:28;21.97;;;15.90;;
5904;SDS011;2978;42.012;24.880;2023-03-23T00:28:55;21.20;;;15.50;;
5904;SDS011;2978;42.012;24.880;2023-03-23T00:31:21;23.70;;;15.70;;
5904;SDS011;2978;42.012;24.880;2023-03-23T00:33:46;20.50;;;15.20;;
5904;SDS011;2978;42.012;24.880;2023-03-23T00:36:12;24.23;;;16.07;;
5904;SDS011;2978;42.012;24.880;2023-03-23T00:38:38;25.30;;;16.63;;
5904;SDS011;2978;42.012;24.880;2023-03-23T00:41:05;24.70;;;17.10;;
5904;SDS011;2978;42.012;24.880;2023-03-23T00:43:31;18.60;;;13.43;;
5904;SDS011;2978;42.012;24.880;2023-03-23T00:46:01;27.83;;;17.67;;
5904;SDS011;2978;42.012;24.880;2023-03-23T00:48:33;22.93;;;15.30;;
5904;SDS011;2978;42.012;24.880;2023-03-23T00:51:00;23.60;;;15.60;;
5904;SDS011;2978;42.012;24.880;2023-03-23T00:53:26;24.00;;;16.93;;
5904;SDS011;2978;42.012;24.880;2023-03-23T00:55:51;24.80;;;15.70;;
5904;SDS011;2978;42.012;24.880;2023-03-23T00:58:17;22.50;;;16.40;;
5904;SDS011;2978;42.012;24.880;2023-03-23T01:00:42;25.70;;;16.70;;
5904;SDS011;2978;42.012;24.880;2023-03-23T01:03:08;24.20;;;16.40;;
5904;SDS011;2978;42.012;24.880;2023-03-23T01:05:43;26.27;;;16.50;;
5904;SDS011;2978;42.012;24.880;2023-03-23T01:08:11;25.60;;;17.80;;
5904;SDS011;2978;42.012;24.880;2023-03-23T01:10:37;22.37;;;16.50;;
5904;SDS011;2978;42.012;24.880;2023-03-23T01:13:04;27.10;;;17.97;;
5904;SDS011;2978;42.012;24.880;2023-03-23T01:15:30;19.43;;;15.40;;
5904;SDS011;2978;42.012;24.880;2023-03-23T01:17:56;35.83;;;18.10;;
5904;SDS011;2978;42.012;24.880;2023-03-23T01:20:22;22.20;;;16.10;;
5904;SDS011;2978;42.012;24.880;2023-03-23T01:22:48;22.03;;;17.20;;
5904;SDS011;2978;42.012;24.880;2023-03-23T01:25:14;22.87;;;16.90;;
5904;SDS011;2978;42.012;24.880;2023-03-23T01:27:40;22.97;;;16.63;;
5904;SDS011;2978;42.012;24.880;2023-03-23T01:30:06;21.33;;;15.30;;
5904;SDS011;2978;42.012;24.880;2023-03-23T01:32:33;21.57;;;16.17;;
5904;SDS011;2978;42.012;24.880;2023-03-23T01:34:59;24.17;;;15.80;;
5904;SDS011;2978;42.012;24.880;2023-03-23T01:37:24;26.03;;;16.03;;
5904;SDS011;2978;42.012;24.880;2023-03-23T01:39:54;20.33;;;14.90;;
5904;SDS011;2978;42.012;24.880;2023-03-23T01:42:21;22.87;;;16.50;;
5904;SDS011;2978;42.012;24.880;2023-03-23T01:47:14;18.63;;;15.67;;
5904;SDS011;2978;42.012;24.880;2023-03-23T01:49:42;28.17;;;15.97;;
5904;SDS011;2978;42.012;24.880;2023-03-23T01:52:13;22.63;;;17.50;;
5904;SDS011;2978;42.012;24.880;2023-03-23T01:54:42;24.00;;;16.90;;
5904;SDS011;2978;42.012;24.880;2023-03-23T01:57:17;23.97;;;17.33;;
5904;SDS011;2978;42.012;24.880;2023-03-23T01:59:46;24.37;;;17.80;;
5904;SDS011;2978;42.012;24.880;2023-03-23T02:02:16;24.60;;;17.00;;
5904;SDS011;2978;42.012;24.880;2023-03-23T02:04:42;26.07;;;18.97;;
5904;SDS011;2978;42.012;24.880;2023-03-23T02:07:09;33.83;;;19.73;;
5904;SDS011;2978;42.012;24.880;2023-03-23T02:09:37;23.97;;;17.60;;
5904;SDS011;2978;42.012;24.880;2023-03-23T02:12:03;32.07;;;21.00;;
5904;SDS011;2978;42.012;24.880;2023-03-23T02:14:28;33.70;;;23.70;;
5904;SDS011;2978;42.012;24.880;2023-03-23T02:19:52;41.27;;;26.63;;
5904;SDS011;2978;42.012;24.880;2023-03-23T02:30:33;40.03;;;29.87;;
5904;SDS011;2978;42.012;24.880;2023-03-23T02:35:50;45.80;;;28.33;;
5904;SDS011;2978;42.012;24.880;2023-03-23T02:38:57;40.43;;;26.20;;
5904;SDS011;2978;42.012;24.880;2023-03-23T02:41:41;41.63;;;25.77;;
5904;SDS011;2978;42.012;24.880;2023-03-23T02:44:10;41.10;;;24.63;;
5904;SDS011;2978;42.012;24.880;2023-03-23T02:46:38;31.20;;;22.57;;
5904;SDS011;2978;42.012;24.880;2023-03-23T02:49:05;31.87;;;21.50;;
5904;SDS011;2978;42.012;24.880;2023-03-23T02:51:33;31.20;;;22.20;;
5904;SDS011;2978;42.012;24.880;2023-03-23T02:54:00;38.47;;;25.20;;
5904;SDS011;2978;42.012;24.880;2023-03-23T02:56:29;37.53;;;23.03;;
5904;SDS011;2978;42.012;24.880;2023-03-23T02:58:57;36.33;;;22.20;;
5904;SDS011;2978;42.012;24.880;2023-03-23T03:03:54;34.80;;;21.97;;
5904;SDS011;2978;42.012;24.880;2023-03-23T03:06:27;34.03;;;23.40;;
5904;SDS011;2978;42.012;24.880;2023-03-23T03:09:07;39.63;;;25.20;;
5904;SDS011;2978;42.012;24.880;2023-03-23T03:11:45;34.47;;;23.30;;
5904;SDS011;2978;42.012;24.880;2023-03-23T03:14:18;41.50;;;23.07;;
5904;SDS011;2978;42.012;24.880;2023-03-23T03:19:45;37.30;;;25.10;;
5904;SDS011;2978;42.012;24.880;2023-03-23T03:22:14;47.50;;;25.03;;
5904;SDS011;2978;42.012;24.880;2023-03-23T03:24:40;33.00;;;23.90;;
5904;SDS011;2978;42.012;24.880;2023-03-23T03:27:11;38.00;;;24.83;;
5904;SDS011;2978;42.012;24.880;2023-03-23T03:29:41;37.67;;;25.30;;
5904;SDS011;2978;42.012;24.880;2023-03-23T03:32:12;42.37;;;26.00;;
5904;SDS011;2978;42.012;24.880;2023-03-23T03:34:43;46.17;;;25.07;;
5904;SDS011;2978;42.012;24.880;2023-03-23T03:37:09;40.40;;;25.50;;
5904;SDS011;2978;42.012;24.880;2023-03-23T03:39:36;40.33;;;27.23;;
5904;SDS011;2978;42.012;24.880;2023-03-23T03:42:06;34.87;;;25.37;;
5904;SDS011;2978;42.012;24.880;2023-03-23T03:44:32;41.97;;;27.17;;
5904;SDS011;2978;42.012;24.880;2023-03-23T03:46:58;38.63;;;24.77;;
5904;SDS011;2978;42.012;24.880;2023-03-23T03:49:23;50.10;;;32.17;;
5904;SDS011;2978;42.012;24.880;2023-03-23T03:51:50;47.90;;;31.20;;
5904;SDS011;2978;42.012;24.880;2023-03-23T03:54:16;48.97;;;31.33;;
5904;SDS011;2978;42.012;24.880;2023-03-23T03:56:41;49.27;;;30.97;;
5904;SDS011;2978;42.012;24.880;2023-03-23T03:59:07;51.63;;;30.03;;
5904;SDS011;2978;42.012;24.880;2023-03-23T04:01:34;41.10;;;26.60;;
5904;SDS011;2978;42.012;24.880;2023-03-23T04:04:02;51.20;;;31.53;;
5904;SDS011;2978;42.012;24.880;2023-03-23T04:06:29;48.23;;;31.10;;
5904;SDS011;2978;42.012;24.880;2023-03-23T04:08:55;48.63;;;31.03;;
5904;SDS011;2978;42.012;24.880;2023-03-23T04:11:24;51.30;;;30.87;;
5904;SDS011;2978;42.012;24.880;2023-03-23T04:13:50;53.57;;;31.37;;
5904;SDS011;2978;42.012;24.880;2023-03-23T04:16:16;57.07;;;33.90;;
5904;SDS011;2978;42.012;24.880;2023-03-23T04:18:42;66.43;;;35.13;;
5904;SDS011;2978;42.012;24.880;2023-03-23T04:21:07;66.60;;;36.10;;
5904;SDS011;2978;42.012;24.880;2023-03-23T04:23:34;83.97;;;40.30;;
5904;SDS011;2978;42.012;24.880;2023-03-23T04:26:00;77.03;;;42.60;;
5904;SDS011;2978;42.012;24.880;2023-03-23T04:28:28;76.87;;;41.83;;
5904;SDS011;2978;42.012;24.880;2023-03-23T04:30:54;68.17;;;39.20;;
5904;SDS011;2978;42.012;24.880;2023-03-23T04:33:21;61.90;;;39.13;;
5904;SDS011;2978;42.012;24.880;2023-03-23T04:35:50;59.37;;;36.70;;
5904;SDS011;2978;42.012;24.880;2023-03-23T04:38:17;65.00;;;36.70;;
5904;SDS011;2978;42.012;24.880;2023-03-23T04:40:45;57.70;;;36.13;;
5904;SDS011;2978;42.012;24.880;2023-03-23T04:43:12;57.13;;;35.07;;
5904;SDS011;2978;42.012;24.880;2023-03-23T04:45:38;59.20;;;37.77;;
5904;SDS011;2978;42.012;24.880;2023-03-23T04:48:06;65.43;;;35.60;;
5904;SDS011;2978;42.012;24.880;2023-03-23T04:50:33;52.57;;;35.50;;
5904;SDS011;2978;42.012;24.880;2023-03-23T04:52:59;53.33;;;35.63;;
5904;SDS011;2978;42.012;24.880;2023-03-23T04:55:30;57.77;;;34.63;;
5904;SDS011;2978;42.012;24.880;2023-03-23T04:58:01;52.60;;;31.43;;
5904;SDS011;2978;42.012;24.880;2023-03-23T05:00:27;50.80;;;31.73;;
5904;SDS011;2978;42.012;24.880;2023-03-23T05:02:53;53.77;;;33.43;;
5904;SDS011;2978;42.012;24.880;2023-03-23T05:05:20;49.10;;;31.27;;
5904;SDS011;2978;42.012;24.880;2023-03-23T05:07:47;46.37;;;30.50;;
5904;SDS011;2978;42.012;24.880;2023-03-23T05:10:13;46.73;;;30.13;;
5904;SDS011;2978;42.012;24.880;2023-03-23T05:12:40;47.10;;;31.67;;
5904;SDS011;2978;42.012;24.880;2023-03-23T05:15:06;52.50;;;32.83;;
5904;SDS011;2978;42.012;24.880;2023-03-23T05:17:33;54.90;;;31.40;;
5904;SDS011;2978;42.012;24.880;2023-03-23T05:19:59;58.57;;;32.37;;
5904;SDS011;2978;42.012;24.880;2023-03-23T05:22:27;54.57;;;33.33;;
5904;SDS011;2978;42.012;24.880;2023-03-23T05:24:53;60.60;;;37.13;;
5904;SDS011;2978;42.012;24.880;2023-03-23T05:27:19;60.37;;;38.13;;
5904;SDS011;2978;42.012;24.880;2023-03-23T05:29:45;68.83;;;36.80;;
5904;SDS011;2978;42.012;24.880;2023-03-23T05:32:13;64.00;;;39.30;;
5904;SDS011;2978;42.012;24.880;2023-03-23T05:34:40;58.70;;;36.43;;
5904;SDS011;2978;42.012;24.880;2023-03-23T05:37:07;59.77;;;36.07;;
5904;SDS011;2978;42.012;24.880;2023-03-23T05:39:34;55.63;;;33.70;;
5904;SDS011;2978;42.012;24.880;2023-03-23T05:42:00;60.03;;;34.80;;
5904;SDS011;2978;42.012;24.880;2023-03-23T05:44:26;59.10;;;34.47;;
5904;SDS011;2978;42.012;24.880;2023-03-23T05:46:52;53.37;;;35.83;;
5904;SDS011;2978;42.012;24.880;2023-03-23T05:49:17;54.77;;;35.03;;
5904;SDS011;2978;42.012;24.880;2023-03-23T05:51:44;53.57;;;34.23;;
5904;SDS011;2978;42.012;24.880;2023-03-23T05:54:11;52.50;;;35.03;;
5904;SDS011;2978;42.012;24.880;2023-03-23T05:56:37;56.27;;;34.97;;
5904;SDS011;2978;42.012;24.880;2023-03-23T05:59:03;62.43;;;36.97;;
5904;SDS011;2978;42.012;24.880;2023-03-23T06:01:29;57.20;;;38.67;;
5904;SDS011;2978;42.012;24.880;2023-03-23T06:03:54;83.70;;;40.83;;
5904;SDS011;2978;42.012;24.880;2023-03-23T06:06:23;78.70;;;42.33;;
5904;SDS011;2978;42.012;24.880;2023-03-23T06:08:54;88.63;;;43.40;;
5904;SDS011;2978;42.012;24.880;2023-03-23T06:11:20;75.60;;;41.90;;
5904;SDS011;2978;42.012;24.880;2023-03-23T06:13:46;71.60;;;42.67;;
5904;SDS011;2978;42.012;24.880;2023-03-23T06:16:12;69.60;;;42.33;;
5904;SDS011;2978;42.012;24.880;2023-03-23T06:18:38;80.70;;;42.47;;
5904;SDS011;2978;42.012;24.880;2023-03-23T06:21:05;65.60;;;38.67;;
5904;SDS011;2978;42.012;24.880;2023-03-23T06:23:31;60.73;;;36.50;;
5904;SDS011;2978;42.012;24.880;2023-03-23T06:25:58;68.40;;;40.00;;
5904;SDS011;2978;42.012;24.880;2023-03-23T06:28:27;65.57;;;38.00;;
5904;SDS011;2978;42.012;24.880;2023-03-23T06:30:52;61.07;;;38.50;;
5904;SDS011;2978;42.012;24.880;2023-03-23T06:33:18;62.23;;;37.87;;
5904;SDS011;2978;42.012;24.880;2023-03-23T06:35:44;76.37;;;39.17;;
5904;SDS011;2978;42.012;24.880;2023-03-23T06:38:10;69.60;;;40.60;;
5904;SDS011;2978;42.012;24.880;2023-03-23T06:40:35;82.53;;;54.23;;
5904;SDS011;2978;42.012;24.880;2023-03-23T06:43:02;66.97;;;39.93;;
5904;SDS011;2978;42.012;24.880;2023-03-23T06:45:28;66.17;;;41.03;;
5904;SDS011;2978;42.012;24.880;2023-03-23T06:47:54;79.90;;;41.60;;
5904;SDS011;2978;42.012;24.880;2023-03-23T06:50:20;64.23;;;38.10;;
5904;SDS011;2978;42.012;24.880;2023-03-23T06:52:46;59.00;;;35.70;;
5904;SDS011;2978;42.012;24.880;2023-03-23T06:55:13;63.63;;;37.83;;
5904;SDS011;2978;42.012;24.880;2023-03-23T06:57:39;65.53;;;37.17;;
5904;SDS011;2978;42.012;24.880;2023-03-23T07:00:05;63.00;;;39.00;;
5904;SDS011;2978;42.012;24.880;2023-03-23T07:02:41;61.60;;;33.77;;
5904;SDS011;2978;42.012;24.880;2023-03-23T07:05:08;60.23;;;34.30;;
5904;SDS011;2978;42.012;24.880;2023-03-23T07:07:38;69.53;;;36.00;;
5904;SDS011;2978;42.012;24.880;2023-03-23T07:10:06;59.43;;;33.70;;
5904;SDS011;2978;42.012;24.880;2023-03-23T07:12:34;53.07;;;33.70;;
5904;SDS011;2978;42.012;24.880;2023-03-23T07:15:01;65.50;;;34.63;;
5904;SDS011;2978;42.012;24.880;2023-03-23T07:17:27;69.03;;;34.40;;
5904;SDS011;2978;42.012;24.880;2023-03-23T07:19:53;60.27;;;33.30;;
5904;SDS011;2978;42.012;24.880;2023-03-23T07:22:19;58.03;;;34.60;;
5904;SDS011;2978;42.012;24.880;2023-03-23T07:24:44;65.40;;;34.97;;
5904;SDS011;2978;42.012;24.880;2023-03-23T07:27:10;56.97;;;36.13;;
5904;SDS011;2978;42.012;24.880;2023-03-23T07:29:36;71.80;;;36.20;;
5904;SDS011;2978;42.012;24.880;2023-03-23T07:32:03;60.63;;;35.13;;
5904;SDS011;2978;42.012;24.880;2023-03-23T07:34:30;54.47;;;31.90;;
5904;SDS011;2978;42.012;24.880;2023-03-23T07:36:56;56.67;;;32.80;;
5904;SDS011;2978;42.012;24.880;2023-03-23T07:39:22;58.83;;;34.47;;
5904;SDS011;2978;42.012;24.880;2023-03-23T07:41:49;55.50;;;35.63;;
5904;SDS011;2978;42.012;24.880;2023-03-23T07:44:14;66.60;;;37.17;;
5904;SDS011;2978;42.012;24.880;2023-03-23T07:46:40;64.80;;;36.30;;
5904;SDS011;2978;42.012;24.880;2023-03-23T07:49:07;59.50;;;34.90;;
5904;SDS011;2978;42.012;24.880;2023-03-23T07:51:33;57.90;;;34.80;;
5904;SDS011;2978;42.012;24.880;2023-03-23T07:53:59;59.30;;;33.80;;
5904;SDS011;2978;42.012;24.880;2023-03-23T07:56:27;74.70;;;35.37;;
5904;SDS011;2978;42.012;24.880;2023-03-23T07:58:52;67.93;;;36.57;;
5904;SDS011;2978;42.012;24.880;2023-03-23T08:01:17;61.80;;;38.00;;
5904;SDS011;2978;42.012;24.880;2023-03-23T08:03:43;63.03;;;40.10;;
5904;SDS011;2978;42.012;24.880;2023-03-23T08:06:09;65.03;;;37.27;;
5904;SDS011;2978;42.012;24.880;2023-03-23T08:08:35;70.60;;;39.00;;
5904;SDS011;2978;42.012;24.880;2023-03-23T08:11:02;61.53;;;39.10;;
5904;SDS011;2978;42.012;24.880;2023-03-23T08:13:28;56.73;;;35.00;;
5904;SDS011;2978;42.012;24.880;2023-03-23T08:15:54;85.93;;;37.90;;
5904;SDS011;2978;42.012;24.880;2023-03-23T08:18:20;58.97;;;35.90;;
5904;SDS011;2978;42.012;24.880;2023-03-23T08:20:45;62.43;;;34.80;;
5904;SDS011;2978;42.012;24.880;2023-03-23T08:23:11;53.40;;;32.77;;
5904;SDS011;2978;42.012;24.880;2023-03-23T08:25:36;55.10;;;34.50;;
5904;SDS011;2978;42.012;24.880;2023-03-23T08:28:02;52.50;;;33.07;;
5904;SDS011;2978;42.012;24.880;2023-03-23T08:30:29;52.83;;;33.00;;
5904;SDS011;2978;42.012;24.880;2023-03-23T08:32:57;54.70;;;34.73;;
5904;SDS011;2978;42.012;24.880;2023-03-23T08:35:23;56.83;;;33.40;;
5904;SDS011;2978;42.012;24.880;2023-03-23T08:37:49;53.30;;;32.80;;
5904;SDS011;2978;42.012;24.880;2023-03-23T08:40:20;48.37;;;32.70;;
5904;SDS011;2978;42.012;24.880;2023-03-23T08:42:47;50.53;;;32.03;;
5904;SDS011;2978;42.012;24.880;2023-03-23T08:45:15;49.77;;;30.20;;
5904;SDS011;2978;42.012;24.880;2023-03-23T08:47:43;54.47;;;32.97;;
5904;SDS011;2978;42.012;24.880;2023-03-23T08:50:10;41.90;;;27.33;;
5904;SDS011;2978;42.012;24.880;2023-03-23T08:52:37;42.50;;;27.73;;
5904;SDS011;2978;42.012;24.880;2023-03-23T08:55:04;44.03;;;28.60;;
5904;SDS011;2978;42.012;24.880;2023-03-23T08:57:30;50.90;;;29.23;;
5904;SDS011;2978;42.012;24.880;2023-03-23T08:59:56;45.70;;;27.90;;
5904;SDS011;2978;42.012;24.880;2023-03-23T09:02:26;38.63;;;25.10;;
5904;SDS011;2978;42.012;24.880;2023-03-23T09:04:52;36.93;;;24.40;;
5904;SDS011;2978;42.012;24.880;2023-03-23T09:07:18;47.30;;;23.10;;
5904;SDS011;2978;42.012;24.880;2023-03-23T09:09:44;36.07;;;25.33;;
5904;SDS011;2978;42.012;24.880;2023-03-23T09:12:10;41.90;;;25.90;;
5904;SDS011;2978;42.012;24.880;2023-03-23T09:14:36;42.97;;;22.77;;
5904;SDS011;2978;42.012;24.880;2023-03-23T09:17:02;40.57;;;26.10;;
5904;SDS011;2978;42.012;24.880;2023-03-23T09:19:28;32.53;;;21.53;;
5904;SDS011;2978;42.012;24.880;2023-03-23T09:21:55;29.87;;;22.33;;
5904;SDS011;2978;42.012;24.880;2023-03-23T09:24:20;33.97;;;23.60;;
5904;SDS011;2978;42.012;24.880;2023-03-23T09:26:46;33.20;;;23.27;;
5904;SDS011;2978;42.012;24.880;2023-03-23T09:29:11;32.53;;;22.20;;
5904;SDS011;2978;42.012;24.880;2023-03-23T09:31:37;34.60;;;22.80;;
5904;SDS011;2978;42.012;24.880;2023-03-23T09:34:05;26.57;;;18.47;;
5904;SDS011;2978;42.012;24.880;2023-03-23T09:36:31;26.40;;;19.23;;
5904;SDS011;2978;42.012;24.880;2023-03-23T09:38:57;27.17;;;19.13;;
5904;SDS011;2978;42.012;24.880;2023-03-23T09:47:29;28.53;;;21.40;;
5904;SDS011;2978;42.012;24.880;2023-03-23T09:52:43;33.63;;;23.37;;
5904;SDS011;2978;42.012;24.880;2023-03-23T09:55:14;34.73;;;25.53;;
5904;SDS011;2978;42.012;24.880;2023-03-23T10:00:40;37.87;;;23.07;;
5904;SDS011;2978;42.012;24.880;2023-03-23T10:03:13;33.83;;;23.20;;
5904;SDS011;2978;42.012;24.880;2023-03-23T10:05:49;34.07;;;22.83;;
5904;SDS011;2978;42.012;24.880;2023-03-23T10:08:16;28.03;;;21.10;;
5904;SDS011;2978;42.012;24.880;2023-03-23T10:10:50;32.50;;;20.37;;
5904;SDS011;2978;42.012;24.880;2023-03-23T10:16:03;36.60;;;23.30;;
5904;SDS011;2978;42.012;24.880;2023-03-23T10:21:00;36.00;;;23.23;;
5904;SDS011;2978;42.012;24.880;2023-03-23T10:26:00;29.93;;;22.70;;
5904;SDS011;2978;42.012;24.880;2023-03-23T10:28:42;38.30;;;24.37;;
5904;SDS011;2978;42.012;24.880;2023-03-23T10:31:13;34.60;;;22.03;;
5904;SDS011;2978;42.012;24.880;2023-03-23T10:33:54;28.43;;;21.07;;
5904;SDS011;2978;42.012;24.880;2023-03-23T10:36:34;29.70;;;21.27;;
5904;SDS011;2978;42.012;24.880;2023-03-23T10:41:48;32.73;;;19.73;;
5904;SDS011;2978;42.012;24.880;2023-03-23T10:44:18;31.57;;;21.03;;
5904;SDS011;2978;42.012;24.880;2023-03-23T10:46:53;27.60;;;20.07;;
5904;SDS011;2978;42.012;24.880;2023-03-23T10:49:25;28.00;;;19.90;;
5904;SDS011;2978;42.012;24.880;2023-03-23T10:52:02;30.37;;;20.00;;
5904;SDS011;2978;42.012;24.880;2023-03-23T10:54:39;26.23;;;19.60;;
5904;SDS011;2978;42.012;24.880;2023-03-23T10:57:27;23.57;;;17.07;;
5904;SDS011;2978;42.012;24.880;2023-03-23T11:02:30;12.80;;;9.30;;
5904;SDS011;2978;42.012;24.880;2023-03-23T11:05:00;16.23;;;11.20;;
5904;SDS011;2978;42.012;24.880;2023-03-23T11:07:31;14.50;;;10.00;;
5904;SDS011;2978;42.012;24.880;2023-03-23T11:10:22;13.60;;;10.80;;
5904;SDS011;2978;42.012;24.880;2023-03-23T11:12:47;15.97;;;10.73;;
5904;SDS011;2978;42.012;24.880;2023-03-23T11:15:29;18.60;;;11.30;;
5904;SDS011;2978;42.012;24.880;2023-03-23T11:18:00;13.13;;;8.70;;
5904;SDS011;2978;42.012;24.880;2023-03-23T11:20:34;11.07;;;9.07;;
5904;SDS011;2978;42.012;24.880;2023-03-23T11:26:20;11.73;;;8.47;;
5904;SDS011;2978;42.012;24.880;2023-03-23T11:29:09;14.53;;;8.40;;
5904;SDS011;2978;42.012;24.880;2023-03-23T11:31:36;10.23;;;7.97;;
5904;SDS011;2978;42.012;24.880;2023-03-23T11:34:10;11.60;;;8.87;;
5904;SDS011;2978;42.012;24.880;2023-03-23T11:36:41;12.13;;;9.40;;
5904;SDS011;2978;42.012;24.880;2023-03-23T11:39:28;12.03;;;8.73;;
5904;SDS011;2978;42.012;24.880;2023-03-23T11:42:11;10.60;;;7.80;;
5904;SDS011;2978;42.012;24.880;2023-03-23T11:44:42;12.60;;;8.67;;
5904;SDS011;2978;42.012;24.880;2023-03-23T11:50:10;11.97;;;8.40;;
5904;SDS011;2978;42.012;24.880;2023-03-23T11:52:52;11.83;;;7.73;;
5904;SDS011;2978;42.012;24.880;2023-03-23T11:55:30;10.93;;;7.73;;
5904;SDS011;2978;42.012;24.880;2023-03-23T11:58:05;9.10;;;6.70;;
5904;SDS011;2978;42.012;24.880;2023-03-23T12:00:36;9.30;;;7.27;;
5904;SDS011;2978;42.012;24.880;2023-03-23T12:03:07;10.87;;;8.67;;
5904;SDS011;2978;42.012;24.880;2023-03-23T12:06:10;10.30;;;7.33;;
5904;SDS011;2978;42.012;24.880;2023-03-23T12:31:20;15.03;;;8.20;;
5904;SDS011;2978;42.012;24.880;2023-03-23T12:33:59;10.87;;;8.57;;
5904;SDS011;2978;42.012;24.880;2023-03-23T12:36:43;16.37;;;9.60;;
5904;SDS011;2978;42.012;24.880;2023-03-23T12:45:01;9.77;;;7.03;;
5904;SDS011;2978;42.012;24.880;2023-03-23T12:47:42;10.37;;;7.50;;
5904;SDS011;2978;42.012;24.880;2023-03-23T12:50:33;9.00;;;6.80;;
5904;SDS011;2978;42.012;24.880;2023-03-23T12:56:05;8.07;;;6.07;;
5904;SDS011;2978;42.012;24.880;2023-03-23T12:58:34;9.10;;;6.20;;
5904;SDS011;2978;42.012;24.880;2023-03-23T13:01:14;11.03;;;6.60;;
5904;SDS011;2978;42.012;24.880;2023-03-23T13:03:50;28.23;;;11.20;;
5904;SDS011;2978;42.012;24.880;2023-03-23T13:06:29;10.63;;;5.93;;
5904;SDS011;2978;42.012;24.880;2023-03-23T13:12:07;6.77;;;5.30;;
5904;SDS011;2978;42.012;24.880;2023-03-23T13:14:48;6.93;;;5.37;;
5904;SDS011;2978;42.012;24.880;2023-03-23T13:23:04;7.90;;;5.77;;
5904;SDS011;2978;42.012;24.880;2023-03-23T13:28:24;10.90;;;6.20;;
5904;SDS011;2978;42.012;24.880;2023-03-23T13:30:57;7.83;;;5.80;;
5904;SDS011;2978;42.012;24.880;2023-03-23T13:33:36;8.77;;;5.13;;
5904;SDS011;2978;42.012;24.880;2023-03-23T13:36:08;7.30;;;4.73;;
5904;SDS011;2978;42.012;24.880;2023-03-23T13:38:35;12.90;;;5.20;;
5904;SDS011;2978;42.012;24.880;2023-03-23T13:41:09;6.30;;;5.27;;
5904;SDS011;2978;42.012;24.880;2023-03-23T13:43:37;6.83;;;5.90;;
5904;SDS011;2978;42.012;24.880;2023-03-23T13:46:08;5.50;;;4.70;;
5904;SDS011;2978;42.012;24.880;2023-03-23T13:48:50;10.67;;;4.93;;
5904;SDS011;2978;42.012;24.880;2023-03-23T13:59:55;6.30;;;4.60;;
5904;SDS011;2978;42.012;24.880;2023-03-23T14:02:29;8.10;;;6.00;;
5904;SDS011;2978;42.012;24.880;2023-03-23T14:05:07;7.43;;;4.83;;
5904;SDS011;2978;42.012;24.880;2023-03-23T14:10:54;5.77;;;5.17;;
5904;SDS011;2978;42.012;24.880;2023-03-23T14:13:31;9.17;;;5.23;;
5904;SDS011;2978;42.012;24.880;2023-03-23T14:16:24;7.30;;;5.17;;
5904;SDS011;2978;42.012;24.880;2023-03-23T14:18:57;5.23;;;3.80;;
5904;SDS011;2978;42.012;24.880;2023-03-23T14:21:33;4.30;;;3.87;;
5904;SDS011;2978;42.012;24.880;2023-03-23T14:29:30;5.77;;;3.83;;
5904;SDS011;2978;42.012;24.880;2023-03-23T14:31:56;5.97;;;3.73;;
5904;SDS011;2978;42.012;24.880;2023-03-23T14:34:26;5.50;;;4.53;;
5904;SDS011;2978;42.012;24.880;2023-03-23T14:36:54;8.50;;;6.57;;
5904;SDS011;2978;42.012;24.880;2023-03-23T14:39:24;7.30;;;4.23;;
5904;SDS011;2978;42.012;24.880;2023-03-23T14:41:51;5.40;;;4.50;;
5904;SDS011;2978;42.012;24.880;2023-03-23T14:44:32;8.80;;;5.50;;
5904;SDS011;2978;42.012;24.880;2023-03-23T14:47:04;7.33;;;5.60;;
5904;SDS011;2978;42.012;24.880;2023-03-23T14:49:36;7.77;;;4.77;;
5904;SDS011;2978;42.012;24.880;2023-03-23T14:52:09;11.60;;;7.47;;
5904;SDS011;2978;42.012;24.880;2023-03-23T14:54:34;7.70;;;5.67;;
5904;SDS011;2978;42.012;24.880;2023-03-23T14:59:49;8.57;;;5.93;;
5904;SDS011;2978;42.012;24.880;2023-03-23T15:02:22;6.83;;;5.37;;
5904;SDS011;2978;42.012;24.880;2023-03-23T15:04:54;13.00;;;7.10;;
5904;SDS011;2978;42.012;24.880;2023-03-23T15:07:40;8.83;;;6.33;;
5904;SDS011;2978;42.012;24.880;2023-03-23T15:10:08;24.50;;;17.70;;
5904;SDS011;2978;42.012;24.880;2023-03-23T15:12:39;9.20;;;8.20;;
5904;SDS011;2978;42.012;24.880;2023-03-23T15:15:05;6.40;;;5.43;;
5904;SDS011;2978;42.012;24.880;2023-03-23T15:17:40;8.03;;;5.43;;
5904;SDS011;2978;42.012;24.880;2023-03-23T15:22:50;7.50;;;5.83;;
5904;SDS011;2978;42.012;24.880;2023-03-23T15:27:55;6.77;;;5.10;;
5904;SDS011;2978;42.012;24.880;2023-03-23T15:30:33;7.27;;;5.50;;
5904;SDS011;2978;42.012;24.880;2023-03-23T15:33:02;8.20;;;5.60;;
5904;SDS011;2978;42.012;24.880;2023-03-23T15:35:39;9.40;;;7.27;;
5904;SDS011;2978;42.012;24.880;2023-03-23T15:38:29;6.10;;;5.00;;
5904;SDS011;2978;42.012;24.880;2023-03-23T15:40:57;6.97;;;5.23;;
5904;SDS011;2978;42.012;24.880;2023-03-23T15:43:28;8.33;;;4.77;;
5904;SDS011;2978;42.012;24.880;2023-03-23T15:51:21;7.20;;;5.60;;
5904;SDS011;2978;42.012;24.880;2023-03-23T15:53:50;8.57;;;5.90;;
5904;SDS011;2978;42.012;24.880;2023-03-23T15:56:16;6.30;;;4.73;;
5904;SDS011;2978;42.012;24.880;2023-03-23T15:58:43;4.73;;;4.00;;
5904;SDS011;2978;42.012;24.880;2023-03-23T16:01:12;13.70;;;7.10;;
5904;SDS011;2978;42.012;24.880;2023-03-23T16:06:12;13.60;;;6.80;;
5904;SDS011;2978;42.012;24.880;2023-03-23T16:08:40;13.77;;;6.20;;
5904;SDS011;2978;42.012;24.880;2023-03-23T16:11:08;13.70;;;5.57;;
5904;SDS011;2978;42.012;24.880;2023-03-23T16:13:35;7.23;;;5.70;;
5904;SDS011;2978;42.012;24.880;2023-03-23T16:16:01;8.60;;;6.20;;
5904;SDS011;2978;42.012;24.880;2023-03-23T16:18:27;8.13;;;6.80;;
5904;SDS011;2978;42.012;24.880;2023-03-23T16:20:52;6.93;;;5.87;;
5904;SDS011;2978;42.012;24.880;2023-03-23T16:23:18;11.30;;;6.27;;
5904;SDS011;2978;42.012;24.880;2023-03-23T16:25:43;6.30;;;5.30;;
5904;SDS011;2978;42.012;24.880;2023-03-23T16:28:10;11.40;;;6.60;;
5904;SDS011;2978;42.012;24.880;2023-03-23T16:30:37;8.00;;;6.30;;
5904;SDS011;2978;42.012;24.880;2023-03-23T16:33:03;8.57;;;7.20;;
5904;SDS011;2978;42.012;24.880;2023-03-23T16:35:28;8.80;;;7.13;;
5904;SDS011;2978;42.012;24.880;2023-03-23T16:37:55;8.60;;;6.87;;
5904;SDS011;2978;42.012;24.880;2023-03-23T16:40:21;14.87;;;10.67;;
5904;SDS011;2978;42.012;24.880;2023-03-23T16:42:48;11.00;;;8.63;;
5904;SDS011;2978;42.012;24.880;2023-03-23T16:45:15;9.30;;;7.40;;
5904;SDS011;2978;42.012;24.880;2023-03-23T16:47:41;16.63;;;7.40;;
5904;SDS011;2978;42.012;24.880;2023-03-23T16:50:08;9.40;;;6.77;;
5904;SDS011;2978;42.012;24.880;2023-03-23T16:52:36;10.70;;;6.70;;
5904;SDS011;2978;42.012;24.880;2023-03-23T16:55:02;10.70;;;7.90;;
5904;SDS011;2978;42.012;24.880;2023-03-23T16:57:28;12.37;;;7.67;;
5904;SDS011;2978;42.012;24.880;2023-03-23T16:59:56;8.10;;;6.93;;
5904;SDS011;2978;42.012;24.880;2023-03-23T17:02:22;9.37;;;7.50;;